Time;durP1;ratioP1;P1;durP2;ratioP2;P2;SDS_P1;SDS_P2;PMS_P1;PMS_P2;Temp;Humidity;BMP_temperature;BMP_pressure;BME280_temperature;BME280_humidity;BME280_pressure;Samples;Min_cycle;Max_cycle;Signal;HPM_P1;HPM_P2
2020/12/20 00:08:07;;;;;;;48.53;19.23;;;1.90;99.90;;;;;;20869677;28;19913;-74
2020/12/20 00:18:08;;;;;;;;;;;1.90;99.90;;;;;;20840292;28;20032;-74
2020/12/20 00:28:09;;;;;;;44.93;17.90;;;1.90;99.90;;;;;;20802670;28;19964;-74
2020/12/20 00:38:10;;;;;;;;;;;2.00;99.90;;;;;;20800546;28;20690;-74
2020/12/20 00:48:10;;;;;;;50.75;19.33;;;1.90;99.90;;;;;;20785648;28;19920;-74
2020/12/20 00:58:11;;;;;;;;;;;1.90;99.90;;;;;;20803451;28;20103;-75
2020/12/20 01:08:12;;;;;;;45.72;19.35;;;1.90;99.90;;;;;;20800894;28;20312;-75
2020/12/20 01:18:15;;;;;;;49.60;18.48;;;1.90;99.90;;;;;;20865899;28;20041;-75
2020/12/20 01:28:16;;;;;;;37.45;16.50;;;2.00;99.90;;;;;;20800784;28;20550;-75
2020/12/20 01:38:18;;;;;;;35.92;16.50;;;2.10;99.90;;;;;;20768714;28;20037;-75
2020/12/20 01:48:21;;;;;;;;;;;2.00;99.90;;;;;;20796659;28;20037;-74
2020/12/20 01:58:22;;;;;;;42.38;19.02;;;1.90;99.90;;;;;;20797866;28;19917;-75
2020/12/20 02:08:33;;;;;;;48.33;20.40;;;1.90;99.90;;;;;;20798397;28;20582;-75
2020/12/20 02:18:38;;;;;;;46.42;20.30;;;1.90;99.90;;;;;;20796596;28;20025;-75
2020/12/20 02:28:42;;;;;;;43.88;18.63;;;1.90;99.90;;;;;;20795753;28;20048;-75
2020/12/20 02:38:48;;;;;;;43.90;17.38;;;1.90;99.90;;;;;;20852511;28;20025;-75
2020/12/20 02:49:01;;;;;;;36.35;17.00;;;2.00;99.90;;;;;;20877434;28;20039;-75
2020/12/20 02:59:03;;;;;;;40.58;17.20;;;2.00;99.90;;;;;;20841930;28;20149;-75
2020/12/20 03:09:05;;;;;;;47.15;18.55;;;1.90;99.90;;;;;;20830792;28;20037;-75
2020/12/20 03:19:07;;;;;;;43.40;18.17;;;1.90;99.90;;;;;;20829503;28;20132;-75
2020/12/20 03:29:08;;;;;;;40.97;17.77;;;1.80;99.90;;;;;;20868976;28;20043;-75
2020/12/20 03:39:23;;;;;;;44.25;18.58;;;1.80;99.90;;;;;;20892069;28;20032;-75
2020/12/20 03:49:24;;;;;;;45.10;19.45;;;1.80;99.90;;;;;;20892007;28;20119;-75
2020/12/20 03:59:25;;;;;;;37.67;17.35;;;1.80;99.90;;;;;;20909068;28;20029;-75
2020/12/20 04:09:26;;;;;;;33.97;16.00;;;1.80;99.90;;;;;;20890640;28;20510;-75
2020/12/20 04:19:32;;;;;;;35.67;15.75;;;1.80;99.90;;;;;;20889890;28;20034;-75
2020/12/20 04:29:41;;;;;;;35.42;16.10;;;1.80;99.90;;;;;;20827003;28;20033;-75
2020/12/20 04:39:44;;;;;;;39.22;17.23;;;1.80;99.90;;;;;;20824632;28;20021;-75
2020/12/20 04:49:48;;;;;;;41.63;18.38;;;1.80;99.90;;;;;;20806859;28;20044;-75
2020/12/20 04:59:57;;;;;;;42.78;18.70;;;1.80;99.90;;;;;;20835574;28;20033;-75
2020/12/20 05:09:58;;;;;;;41.08;17.83;;;1.80;99.90;;;;;;20888131;28;20029;-75
2020/12/20 05:20:25;;;;;;;36.45;16.08;;;1.80;99.90;;;;;;20969343;22;20036;-81
2020/12/20 05:30:26;;;;;;;31.33;14.40;;;1.80;99.90;;;;;;20930725;28;20096;-82
2020/12/20 05:40:50;;;;;;;33.05;14.13;;;1.70;99.90;;;;;;20906006;28;20505;-82
2020/12/20 05:50:58;;;;;;;33.47;14.98;;;1.80;99.90;;;;;;20929601;28;20111;-83
2020/12/20 06:01:00;;;;;;;33.70;16.75;;;1.70;99.90;;;;;;20929955;28;20442;-82
2020/12/20 06:11:03;;;;;;;44.30;17.40;;;1.70;99.90;;;;;;20930605;28;20365;-85
2020/12/20 06:21:11;;;;;;;48.85;18.85;;;1.60;99.90;;;;;;20930807;28;20037;-84
2020/12/20 06:31:12;;;;;;;47.88;19.23;;;1.60;99.90;;;;;;20996371;28;20041;-79
2020/12/20 06:41:35;;;;;;;51.13;19.38;;;1.50;99.90;;;;;;21035699;28;20489;-82
2020/12/20 06:51:35;;;;;;;55.47;21.08;;;1.50;99.90;;;;;;20980293;28;20046;-80
2020/12/20 07:01:37;;;;;;;45.78;19.33;;;1.40;99.90;;;;;;20996233;28;20422;-81
2020/12/20 07:11:44;;;;;;;49.75;18.85;;;1.50;99.90;;;;;;20978602;28;20032;-84
2020/12/20 07:21:56;;;;;;;50.78;20.67;;;1.50;99.90;;;;;;21009436;28;20041;-85
2020/12/20 07:31:59;;;;;;;37.80;16.60;;;1.60;99.90;;;;;;20969124;28;20032;-82
2020/12/20 07:42:00;;;;;;;40.00;15.70;;;1.60;99.90;;;;;;20949645;28;20062;-85
2020/12/20 07:52:09;;;;;;;35.90;15.63;;;1.60;99.90;;;;;;20899010;28;20044;-79
2020/12/20 08:02:20;;;;;;;33.97;13.68;;;2.20;99.90;;;;;;20905913;28;20043;-80
2020/12/20 08:12:20;;;;;;;35.83;17.23;;;1.80;99.90;;;;;;20921069;28;20570;-84
2020/12/20 08:22:22;;;;;;;;;;;1.80;99.90;;;;;;20943557;28;20045;-80
2020/12/20 08:32:37;;;;;;;39.17;17.13;;;1.90;99.90;;;;;;20991683;28;19912;-80
2020/12/20 08:42:38;;;;;;;37.17;17.73;;;2.00;99.90;;;;;;20953759;28;20039;-81
2020/12/20 08:52:40;;;;;;;40.10;17.73;;;2.10;99.90;;;;;;20956206;28;20028;-80
2020/12/20 09:02:41;;;;;;;35.35;16.65;;;2.20;99.90;;;;;;20976462;28;20078;-80
2020/12/20 09:12:50;;;;;;;32.70;15.85;;;2.20;99.90;;;;;;21012036;28;20048;-80
2020/12/20 09:22:54;;;;;;;30.30;14.00;;;2.30;99.90;;;;;;20966473;28;20032;-76
2020/12/20 09:33:00;;;;;;;26.63;13.32;;;3.00;99.90;;;;;;20989053;28;20793;-82
2020/12/20 09:43:01;;;;;;;31.60;15.30;;;2.60;99.90;;;;;;20945798;28;20067;-80
2020/12/20 09:53:02;;;;;;;29.80;14.00;;;2.80;99.90;;;;;;20916181;28;20037;-80
2020/12/20 10:03:03;;;;;;;32.13;15.40;;;2.80;99.90;;;;;;20915119;28;20274;-81
2020/12/20 10:13:04;;;;;;;45.78;21.13;;;2.50;99.90;;;;;;20973951;28;20081;-80
2020/12/20 10:23:06;;;;;;;26.23;14.13;;;2.50;99.90;;;;;;20948179;28;20515;-80
2020/12/20 10:33:07;;;;;;;35.17;17.98;;;2.90;99.90;;;;;;20916696;28;20091;-82
2020/12/20 10:43:07;;;;;;;28.25;15.68;;;2.90;99.90;;;;;;20928827;28;20045;-81
2020/12/20 10:53:08;;;;;;;29.83;15.47;;;2.80;99.90;;;;;;20907432;28;20036;-81
2020/12/20 11:03:09;;;;;;;32.88;16.08;;;3.00;99.90;;;;;;20924495;28;20043;-82
2020/12/20 11:13:10;;;;;;;28.70;14.83;;;2.90;99.90;;;;;;20914577;28;20428;-81
2020/12/20 11:23:11;;;;;;;25.30;13.80;;;3.10;99.90;;;;;;20831564;22;20311;-73
2020/12/20 11:33:11;;;;;;;26.30;14.80;;;3.30;99.90;;;;;;20779547;28;20084;-74
2020/12/20 11:43:12;;;;;;;28.70;13.10;;;3.70;99.90;;;;;;20778397;28;20036;-74
2020/12/20 11:53:13;;;;;;;20.03;11.50;;;4.30;99.90;;;;;;20764159;28;20037;-74
2020/12/20 12:03:17;;;;;;;20.63;11.97;;;4.70;99.90;;;;;;20770628;28;20092;-75
2020/12/20 12:13:18;;;;;;;23.92;11.85;;;4.70;99.90;;;;;;20756409;28;20065;-75
2020/12/20 12:23:19;;;;;;;17.00;10.50;;;5.60;99.90;;;;;;20756783;28;20636;-75
2020/12/20 12:33:19;;;;;;;18.93;10.20;;;6.50;99.90;;;;;;20748385;28;20289;-74
2020/12/20 12:43:20;;;;;;;20.33;11.30;;;6.90;99.90;;;;;;20741211;28;20038;-75
2020/12/20 12:53:21;;;;;;;13.70;7.97;;;7.20;99.90;;;;;;20800427;28;20114;-75
2020/12/20 13:03:22;;;;;;;17.27;10.43;;;7.00;99.90;;;;;;20745095;28;20053;-75
2020/12/20 13:13:23;;;;;;;23.73;11.87;;;7.40;99.90;;;;;;20723220;28;20049;-75
2020/12/20 13:23:23;;;;;;;21.40;12.13;;;7.50;99.90;;;;;;20727442;28;20144;-75
2020/12/20 13:33:27;;;;;;;28.07;14.63;;;7.60;99.90;;;;;;20742234;28;20029;-74
2020/12/20 13:43:30;;;;;;;23.73;14.05;;;6.80;99.90;;;;;;20765105;28;20607;-75
2020/12/20 13:53:31;;;;;;;30.35;16.23;;;6.20;99.90;;;;;;20769499;28;20128;-75
2020/12/20 14:03:31;;;;;;;27.03;15.50;;;6.00;99.90;;;;;;20758292;28;20048;-75
2020/12/20 14:13:32;;;;;;;29.97;16.43;;;5.40;99.90;;;;;;20764692;28;20520;-75
2020/12/20 14:23:33;;;;;;;29.03;15.57;;;5.30;99.90;;;;;;20802135;28;20029;-75
2020/12/20 14:33:34;;;;;;;37.37;17.00;;;5.00;99.90;;;;;;20728609;28;20034;-75
2020/12/20 14:43:35;;;;;;;22.33;12.27;;;4.80;99.90;;;;;;20728071;28;20096;-75
2020/12/20 14:53:36;;;;;;;29.17;15.70;;;4.70;99.90;;;;;;20725701;28;20038;-75
2020/12/20 15:03:37;;;;;;;27.37;15.07;;;4.50;99.90;;;;;;20725235;28;20029;-75
2020/12/20 15:13:38;;;;;;;25.17;14.87;;;4.50;99.90;;;;;;20790845;28;20034;-75
2020/12/20 15:23:39;;;;;;;30.67;16.25;;;4.50;99.90;;;;;;20738426;28;20049;-75
2020/12/20 15:33:40;;;;;;;29.97;16.93;;;4.50;99.90;;;;;;20806415;28;20039;-74
2020/12/20 15:43:43;;;;;;;35.93;19.20;;;4.40;99.90;;;;;;20776484;28;20847;-75
2020/12/20 15:53:44;;;;;;;35.47;17.42;;;4.10;99.90;;;;;;20745897;28;20444;-75
2020/12/20 16:03:47;;;;;;;34.43;18.10;;;4.20;99.90;;;;;;20729374;28;20038;-74
2020/12/20 16:13:48;;;;;;;31.65;17.75;;;4.20;99.90;;;;;;20718710;28;20041;-76
2020/12/20 16:23:49;;;;;;;28.70;15.97;;;4.40;99.90;;;;;;20771120;28;20042;-74
2020/12/20 16:33:50;;;;;;;30.90;16.53;;;4.40;99.90;;;;;;20763201;28;20034;-74
2020/12/20 16:43:51;;;;;;;30.73;16.50;;;4.50;99.90;;;;;;20771633;28;20021;-74
2020/12/20 16:53:51;;;;;;;36.83;17.50;;;4.50;99.90;;;;;;20803447;28;20180;-74
2020/12/20 17:03:54;;;;;;;34.13;17.80;;;4.30;99.90;;;;;;20801513;28;20037;-75
2020/12/20 17:13:54;;;;;;;37.00;18.52;;;4.40;99.90;;;;;;20802713;28;20037;-75
2020/12/20 17:23:55;;;;;;;33.43;18.10;;;4.20;99.90;;;;;;20885248;22;20044;-78
2020/12/20 17:33:56;;;;;;;35.07;18.13;;;4.30;99.90;;;;;;20817217;28;20130;-80
2020/12/20 17:43:57;;;;;;;36.77;17.23;;;4.40;99.90;;;;;;20749431;28;20133;-79
2020/12/20 17:53:58;;;;;;;36.08;18.25;;;4.30;99.90;;;;;;20748363;28;20487;-79
2020/12/20 18:03:59;;;;;;;36.90;19.37;;;4.10;99.90;;;;;;20755742;28;20052;-78
2020/12/20 18:14:00;;;;;;;37.57;19.20;;;4.20;99.90;;;;;;20733056;28;20099;-76
2020/12/20 18:24:01;;;;;;;40.28;18.13;;;4.30;99.90;;;;;;20752650;28;20042;-79
2020/12/20 18:34:03;;;;;;;33.47;17.63;;;4.30;99.90;;;;;;20796787;28;20048;-77
2020/12/20 18:44:04;;;;;;;30.02;15.98;;;5.80;99.90;;;;;;20818244;28;20517;-79
2020/12/20 18:54:07;;;;;;;20.70;11.73;;;4.70;99.90;;;;;;20816888;28;20111;-77
2020/12/20 19:04:08;;;;;;;37.55;17.80;;;4.30;99.90;;;;;;20811797;28;20846;-79
2020/12/20 19:14:09;;;;;;;36.58;19.70;;;4.30;99.90;;;;;;20798501;28;20033;-79
2020/12/20 19:24:11;;;;;;;35.07;18.27;;;4.20;99.90;;;;;;20757147;28;20496;-79
2020/12/20 19:34:16;;;;;;;38.92;20.38;;;4.20;99.90;;;;;;20745213;28;20038;-80
2020/12/20 19:44:17;;;;;;;40.53;20.45;;;4.10;99.90;;;;;;20780502;28;20076;-79
2020/12/20 19:54:18;;;;;;;39.67;20.03;;;4.10;99.90;;;;;;20798638;28;20060;-79
2020/12/20 20:04:18;;;;;;;37.27;19.27;;;4.20;99.90;;;;;;20796482;28;20399;-79
2020/12/20 20:14:19;;;;;;;36.83;19.13;;;4.30;99.90;;;;;;20813290;28;20117;-79
2020/12/20 20:24:20;;;;;;;33.27;18.73;;;4.30;99.90;;;;;;20781585;28;20043;-78
2020/12/20 20:34:21;;;;;;;39.23;18.83;;;4.30;99.90;;;;;;20797175;28;20037;-78
2020/12/20 20:44:22;;;;;;;40.40;20.83;;;4.30;99.90;;;;;;20722291;28;20033;-77
2020/12/20 20:54:22;;;;;;;38.57;20.23;;;4.40;99.90;;;;;;20778938;28;20514;-80
2020/12/20 21:04:23;;;;;;;38.70;19.10;;;4.40;99.90;;;;;;20821376;28;20118;-79
2020/12/20 21:14:24;;;;;;;38.93;20.17;;;4.30;99.90;;;;;;20753714;28;20025;-78
2020/12/20 21:24:25;;;;;;;41.30;20.50;;;4.30;99.90;;;;;;20801893;28;20598;-79
2020/12/20 21:34:29;;;;;;;43.73;21.60;;;4.30;99.90;;;;;;20809011;28;20487;-78
2020/12/20 21:44:30;;;;;;;47.53;23.23;;;4.20;99.90;;;;;;20807918;28;20082;-78
2020/12/20 21:54:30;;;;;;;48.00;22.57;;;4.20;99.90;;;;;;20832705;28;20033;-79
2020/12/20 22:04:31;;;;;;;46.97;21.10;;;4.30;99.90;;;;;;20793117;28;20128;-77
2020/12/20 22:14:32;;;;;;;43.83;20.97;;;4.40;99.90;;;;;;20840381;28;20053;-78
2020/12/20 22:24:36;;;;;;;43.25;20.83;;;4.50;99.90;;;;;;20823779;28;20124;-78
2020/12/20 22:34:36;;;;;;;47.90;22.42;;;4.30;99.90;;;;;;20801403;28;20033;-78
2020/12/20 22:44:37;;;;;;;46.10;22.77;;;4.20;99.90;;;;;;20799146;28;20025;-78
2020/12/20 22:54:38;;;;;;;47.80;22.33;;;4.40;99.90;;;;;;20753145;28;20539;-77
2020/12/20 23:04:40;;;;;;;45.87;21.07;;;4.50;99.90;;;;;;20783690;28;20029;-78
2020/12/20 23:14:41;;;;;;;;;;;4.60;99.90;;;;;;20790742;28;20136;-77
2020/12/20 23:24:43;;;;;;;38.45;19.42;;;4.50;99.90;;;;;;20955038;22;19955;-82
2020/12/20 23:34:43;;;;;;;40.20;19.80;;;4.40;99.90;;;;;;20895932;28;20171;-84
2020/12/20 23:44:45;;;;;;;45.60;22.00;;;4.20;99.90;;;;;;20902650;28;20037;-83
2020/12/20 23:54:45;;;;;;;;;;;4.10;99.90;;;;;;20877263;28;20479;-81
